createdAt,value
2023-06-19T00:01:43.301Z,12.07
2023-06-19T00:04:28.761Z,12.08
2023-06-19T00:07:14.244Z,12.10
2023-06-19T00:10:00.203Z,12.12
2023-06-19T00:12:45.476Z,12.10
2023-06-19T00:15:30.895Z,12.03
2023-06-19T00:18:18.381Z,11.93
2023-06-19T00:21:06.799Z,11.86
2023-06-19T00:23:53.516Z,11.83
2023-06-19T00:26:38.940Z,11.79
2023-06-19T00:29:29.289Z,11.72
2023-06-19T00:32:16.013Z,11.67
2023-06-19T00:35:02.082Z,11.65
2023-06-19T00:37:48.013Z,11.61
2023-06-19T00:40:35.144Z,11.63
2023-06-19T00:43:20.772Z,11.59
2023-06-19T00:46:06.258Z,11.55
2023-06-19T00:48:51.700Z,11.54
2023-06-19T00:51:38.524Z,11.59
2023-06-19T00:54:25.048Z,11.62
2023-06-19T00:57:11.498Z,11.64
2023-06-19T00:59:57.793Z,11.65
2023-06-19T01:02:44.169Z,11.59
2023-06-19T01:05:30.812Z,11.52
2023-06-19T01:08:28.313Z,11.37
2023-06-19T01:11:25.949Z,11.28
2023-06-19T01:14:29.520Z,11.20
2023-06-19T01:17:15.758Z,11.20
2023-06-19T01:20:07.811Z,11.21
2023-06-19T01:22:57.883Z,11.24
2023-06-19T01:25:43.892Z,11.22
2023-06-19T01:28:30.233Z,11.16
2023-06-19T01:31:23.570Z,11.12
2023-06-19T01:34:12.280Z,11.11
2023-06-19T01:36:58.799Z,11.08
2023-06-19T01:39:46.945Z,11.00
2023-06-19T01:42:33.724Z,10.97
2023-06-19T01:45:19.261Z,11.00
2023-06-19T01:48:05.403Z,10.96
2023-06-19T01:50:51.851Z,10.88
2023-06-19T01:53:37.864Z,10.85
2023-06-19T01:56:25.309Z,10.80
2023-06-19T01:59:10.855Z,10.76
2023-06-19T02:01:56.177Z,10.73
2023-06-19T02:04:41.563Z,10.72
2023-06-19T02:07:27.019Z,10.69
2023-06-19T02:10:12.342Z,10.64
2023-06-19T02:12:58.156Z,10.60
2023-06-19T02:15:44.012Z,10.58
2023-06-19T02:18:29.382Z,10.58
2023-06-19T02:21:14.834Z,10.56
2023-06-19T02:24:00.274Z,10.51
2023-06-19T02:26:46.179Z,10.53
2023-06-19T02:29:34.976Z,10.55
2023-06-19T02:32:21.633Z,10.57
2023-06-19T02:35:10.039Z,10.57
2023-06-19T02:37:55.511Z,10.60
2023-06-19T02:40:40.722Z,10.65
2023-06-19T02:43:26.189Z,10.68
2023-06-19T02:46:13.558Z,10.70
2023-06-19T02:49:02.108Z,10.74
2023-06-19T02:51:47.383Z,10.75
2023-06-19T02:54:32.969Z,10.78
2023-06-19T02:57:18.271Z,10.81
2023-06-19T03:00:07.193Z,10.84
2023-06-19T03:02:52.993Z,10.89
2023-06-19T03:05:39.343Z,10.93
2023-06-19T03:08:24.857Z,10.96
2023-06-19T03:11:10.907Z,10.99
2023-06-19T03:13:57.381Z,11.04
2023-06-19T03:16:43.202Z,11.10
2023-06-19T03:19:28.851Z,11.17
2023-06-19T03:22:14.280Z,11.23
2023-06-19T03:24:59.780Z,11.30
2023-06-19T03:27:45.571Z,11.36
2023-06-19T03:30:31.184Z,11.42
2023-06-19T03:33:17.051Z,11.47
2023-06-19T03:36:05.655Z,11.53
2023-06-19T03:38:59.785Z,11.59
2023-06-19T03:41:48.386Z,11.66
2023-06-19T03:44:33.995Z,11.72
2023-06-19T03:47:19.788Z,11.77
2023-06-19T03:50:19.816Z,11.83
2023-06-19T03:53:16.411Z,11.90
2023-06-19T03:56:01.888Z,11.92
2023-06-19T03:58:47.101Z,11.97
2023-06-19T04:01:32.332Z,12.00
2023-06-19T04:04:17.849Z,12.06
2023-06-19T04:07:03.814Z,12.10
2023-06-19T04:09:49.621Z,12.15
2023-06-19T04:12:36.914Z,12.23
2023-06-19T04:15:24.082Z,12.31
2023-06-19T04:18:09.765Z,12.36
2023-06-19T04:20:56.436Z,12.43
2023-06-19T04:23:41.814Z,12.47
2023-06-19T04:26:27.258Z,12.54
2023-06-19T04:29:17.896Z,12.59
2023-06-19T04:32:12.333Z,12.64
2023-06-19T04:34:58.514Z,12.71
2023-06-19T04:37:44.148Z,12.76
2023-06-19T04:40:29.763Z,12.82
2023-06-19T04:43:14.935Z,12.86
2023-06-19T04:46:00.430Z,12.91
2023-06-19T04:48:46.623Z,12.97
2023-06-19T04:51:33.692Z,13.04
2023-06-19T04:54:19.145Z,13.10
2023-06-19T04:57:04.922Z,13.14
2023-06-19T04:59:50.606Z,13.20
2023-06-19T05:02:35.952Z,13.25
2023-06-19T05:05:24.372Z,13.29
2023-06-19T05:08:10.953Z,13.34
2023-06-19T05:10:57.561Z,13.38
2023-06-19T05:13:42.713Z,13.40
2023-06-19T05:16:28.346Z,13.44
2023-06-19T05:19:14.291Z,13.50
2023-06-19T05:21:59.611Z,13.55
2023-06-19T05:24:45.260Z,13.61
2023-06-19T05:27:30.926Z,13.69
2023-06-19T05:30:16.556Z,13.74
2023-06-19T05:33:01.899Z,13.79
2023-06-19T05:35:53.480Z,13.89
2023-06-19T05:38:38.832Z,13.96
2023-06-19T05:41:24.248Z,14.02
2023-06-19T05:44:10.823Z,14.05
2023-06-19T05:46:56.646Z,14.08
2023-06-19T05:49:42.261Z,14.12
2023-06-19T05:52:28.325Z,14.16
2023-06-19T05:55:13.780Z,14.19
2023-06-19T05:57:59.600Z,14.21
2023-06-19T06:00:44.855Z,14.24
2023-06-19T06:03:31.406Z,14.32
2023-06-19T06:06:17.252Z,14.39
2023-06-19T06:09:03.077Z,14.45
2023-06-19T06:11:48.333Z,14.55
2023-06-19T06:14:33.939Z,14.64
2023-06-19T06:17:19.331Z,14.72
2023-06-19T06:20:13.614Z,14.82
2023-06-19T06:22:59.485Z,14.88
2023-06-19T06:25:46.800Z,14.94
2023-06-19T06:28:32.798Z,15.02
2023-06-19T06:31:18.322Z,15.12
2023-06-19T06:34:03.713Z,15.23
2023-06-19T06:37:00.655Z,15.35
2023-06-19T06:39:46.929Z,15.50
2023-06-19T06:42:32.329Z,15.62
2023-06-19T06:45:17.873Z,15.75
2023-06-19T06:48:03.833Z,15.84
2023-06-19T06:50:49.579Z,15.95
2023-06-19T06:53:35.290Z,16.07
2023-06-19T06:56:20.347Z,16.18
2023-06-19T06:59:05.822Z,16.33
2023-06-19T07:01:51.012Z,16.51
2023-06-19T07:04:36.478Z,16.69
2023-06-19T07:07:22.063Z,16.85
2023-06-19T07:10:07.821Z,17.02
2023-06-19T07:12:53.210Z,17.16
2023-06-19T07:15:39.124Z,17.29
2023-06-19T07:18:24.825Z,17.40
2023-06-19T07:21:15.961Z,17.51
2023-06-19T07:24:02.280Z,17.68
2023-06-19T07:26:48.374Z,17.83
2023-06-19T07:29:33.832Z,17.98
2023-06-19T07:32:19.207Z,18.15
2023-06-19T07:35:06.033Z,18.30
2023-06-19T07:37:51.731Z,18.46
2023-06-19T07:40:36.917Z,18.62
2023-06-19T07:43:25.271Z,18.76
2023-06-19T07:46:11.356Z,18.91
2023-06-19T07:48:56.873Z,19.03
2023-06-19T07:51:42.316Z,19.14
2023-06-19T07:54:27.719Z,19.23
2023-06-19T07:57:13.491Z,19.34
2023-06-19T07:59:59.338Z,19.42
2023-06-19T08:02:44.737Z,19.48
2023-06-19T08:05:30.673Z,19.53
2023-06-19T08:08:16.050Z,19.60
2023-06-19T08:11:01.755Z,19.64
2023-06-19T08:13:47.676Z,19.65
2023-06-19T08:16:33.253Z,19.66
2023-06-19T08:19:19.205Z,19.68
2023-06-19T08:22:04.977Z,19.73
2023-06-19T08:24:50.643Z,19.82
2023-06-19T08:27:36.444Z,19.92
2023-06-19T08:30:21.856Z,20.02
2023-06-19T08:33:07.731Z,20.11
2023-06-19T08:35:53.917Z,20.20
2023-06-19T08:38:39.507Z,20.33
2023-06-19T08:41:24.943Z,20.44
2023-06-19T08:44:10.903Z,20.52
2023-06-19T08:46:58.829Z,20.62
2023-06-19T08:49:44.676Z,20.72
2023-06-19T08:52:30.172Z,20.87
2023-06-19T08:55:16.307Z,20.98
2023-06-19T08:58:01.715Z,21.10
2023-06-19T09:00:48.869Z,21.23
2023-06-19T09:03:34.732Z,21.38
2023-06-19T09:06:21.140Z,21.56
2023-06-19T09:09:12.027Z,21.70
2023-06-19T09:12:05.409Z,21.87
2023-06-19T09:14:55.737Z,22.01
2023-06-19T09:17:41.939Z,22.11
2023-06-19T09:20:39.797Z,22.29
2023-06-19T09:23:26.281Z,22.52
2023-06-19T09:26:17.055Z,22.72
2023-06-19T09:29:22.938Z,22.89
2023-06-19T09:32:23.128Z,23.00
2023-06-19T09:35:10.275Z,23.11
2023-06-19T09:37:56.086Z,23.23
2023-06-19T09:40:41.778Z,23.37
2023-06-19T09:43:34.869Z,23.50
2023-06-19T09:46:21.076Z,23.66
2023-06-19T09:49:08.114Z,23.81
2023-06-19T09:51:54.013Z,23.94
2023-06-19T09:54:40.602Z,24.04
2023-06-19T09:57:27.038Z,24.19
2023-06-19T10:00:27.734Z,24.37
2023-06-19T10:03:14.537Z,24.48
2023-06-19T10:06:04.821Z,24.59
2023-06-19T10:08:52.396Z,24.73
2023-06-19T10:11:48.558Z,24.84
2023-06-19T10:14:34.159Z,24.96
2023-06-19T10:17:20.223Z,25.05
2023-06-19T10:20:12.805Z,25.13
2023-06-19T10:23:11.864Z,25.15
2023-06-19T10:26:00.452Z,25.18
2023-06-19T10:28:49.153Z,25.18
2023-06-19T10:31:34.897Z,25.17
2023-06-19T10:34:20.476Z,25.17
2023-06-19T10:37:06.294Z,25.17
2023-06-19T10:39:52.246Z,25.16
2023-06-19T10:42:38.574Z,25.11
2023-06-19T10:45:29.510Z,25.05
2023-06-19T10:48:24.600Z,24.95
2023-06-19T10:51:10.259Z,24.89
2023-06-19T10:53:57.225Z,24.84
2023-06-19T10:56:44.645Z,24.77
2023-06-19T10:59:30.598Z,24.67
2023-06-19T11:02:19.624Z,24.57
2023-06-19T11:05:05.927Z,24.47
2023-06-19T11:08:00.287Z,24.35
2023-06-19T11:10:46.342Z,24.21
2023-06-19T11:13:31.831Z,24.13
2023-06-19T11:16:17.582Z,24.02
2023-06-19T11:19:03.115Z,23.93
2023-06-19T11:21:50.464Z,23.82
2023-06-19T11:24:36.089Z,23.71
2023-06-19T11:27:29.797Z,23.61
2023-06-19T11:30:15.504Z,23.48
2023-06-19T11:33:02.891Z,23.38
2023-06-19T11:35:48.675Z,23.29
2023-06-19T11:38:37.573Z,23.24
2023-06-19T11:41:28.472Z,23.18
2023-06-19T11:44:14.506Z,23.15
2023-06-19T11:47:01.783Z,23.12
2023-06-19T11:49:49.648Z,23.12
2023-06-19T11:52:35.893Z,23.12
2023-06-19T11:55:21.376Z,23.08
2023-06-19T11:58:07.134Z,23.08
2023-06-19T12:00:54.745Z,23.10
2023-06-19T12:03:41.711Z,23.08
2023-06-19T12:06:29.037Z,23.05
2023-06-19T12:09:15.176Z,23.04
2023-06-19T12:12:01.776Z,23.01
2023-06-19T12:14:47.182Z,22.98
2023-06-19T12:17:33.220Z,22.94
2023-06-19T12:20:19.478Z,22.93
2023-06-19T12:23:05.296Z,22.96
2023-06-19T12:25:50.577Z,22.96
2023-06-19T12:28:35.864Z,22.97
2023-06-19T12:31:21.886Z,22.98
2023-06-19T12:36:58.564Z,22.94
2023-06-19T12:39:44.933Z,22.94
2023-06-19T12:42:30.314Z,22.97
2023-06-19T12:45:15.676Z,22.99
2023-06-19T12:48:01.603Z,23.01
2023-06-19T12:50:47.633Z,23.04
2023-06-19T12:53:33.302Z,23.06
2023-06-19T12:56:18.777Z,23.09
2023-06-19T12:59:04.260Z,23.14
2023-06-19T13:01:50.078Z,23.18
2023-06-19T13:04:35.476Z,23.27
2023-06-19T13:07:21.501Z,23.36
2023-06-19T13:10:07.325Z,23.52
2023-06-19T13:12:52.766Z,23.72
2023-06-19T13:15:38.228Z,23.90
2023-06-19T13:18:24.020Z,23.97
2023-06-19T13:21:09.367Z,24.04
2023-06-19T13:23:55.363Z,24.13
2023-06-19T13:26:41.305Z,24.28
2023-06-19T13:29:27.497Z,24.48
2023-06-19T13:32:13.124Z,24.69
2023-06-19T13:34:58.784Z,24.81
2023-06-19T13:37:44.546Z,24.93
2023-06-19T13:40:29.851Z,25.11
2023-06-19T13:43:15.971Z,25.31
2023-06-19T13:46:04.359Z,25.55
2023-06-19T13:48:52.223Z,25.75
2023-06-19T13:51:38.886Z,25.87
2023-06-19T13:54:24.567Z,25.96
2023-06-19T13:57:10.127Z,26.10
2023-06-19T13:59:55.871Z,26.30
2023-06-19T14:02:42.137Z,26.53
2023-06-19T14:05:27.801Z,26.75
2023-06-19T14:08:13.341Z,26.98
2023-06-19T14:10:59.228Z,27.19
2023-06-19T14:13:44.558Z,27.32
2023-06-19T14:16:30.071Z,27.42
2023-06-19T14:19:16.397Z,27.36
2023-06-19T14:22:03.121Z,27.39
2023-06-19T14:24:48.861Z,27.50
2023-06-19T14:27:35.137Z,27.59
2023-06-19T14:30:21.000Z,27.57
2023-06-19T14:33:06.662Z,27.56
2023-06-19T14:35:53.299Z,27.59
2023-06-19T14:38:39.165Z,27.76
2023-06-19T14:41:24.403Z,27.92
2023-06-19T14:44:09.908Z,28.02
2023-06-19T14:46:55.623Z,28.20
2023-06-19T14:49:41.455Z,28.40
2023-06-19T14:52:27.204Z,28.52
2023-06-19T14:55:12.569Z,28.66
2023-06-19T14:57:58.374Z,28.82
2023-06-19T15:00:44.009Z,28.93
2023-06-19T15:03:29.457Z,29.04
2023-06-19T15:06:15.792Z,29.20
2023-06-19T15:09:02.677Z,29.25
2023-06-19T15:11:49.930Z,29.39
2023-06-19T15:14:39.045Z,29.60
2023-06-19T15:17:24.334Z,29.80
2023-06-19T15:20:10.392Z,29.95
2023-06-19T15:22:56.155Z,30.08
2023-06-19T15:25:41.378Z,30.14
2023-06-19T15:28:26.903Z,30.21
2023-06-19T15:31:12.358Z,30.21
2023-06-19T15:33:57.955Z,30.06
2023-06-19T15:36:44.453Z,30.03
2023-06-19T15:39:29.998Z,29.99
2023-06-19T15:42:15.406Z,29.97
2023-06-19T15:45:00.746Z,30.06
2023-06-19T15:47:46.116Z,30.15
2023-06-19T15:50:31.518Z,30.15
2023-06-19T15:53:16.845Z,30.02
2023-06-19T15:56:03.190Z,29.98
2023-06-19T15:58:49.685Z,29.91
2023-06-19T16:01:35.184Z,29.87
2023-06-19T16:04:20.643Z,29.73
2023-06-19T16:07:06.710Z,29.60
2023-06-19T16:09:55.754Z,29.46
2023-06-19T16:12:43.587Z,29.43
2023-06-19T16:15:29.884Z,29.36
2023-06-19T16:18:15.441Z,29.19
2023-06-19T16:21:01.271Z,29.09
2023-06-19T16:23:46.841Z,29.03
2023-06-19T16:26:32.559Z,29.00
2023-06-19T16:29:17.873Z,28.95
2023-06-19T16:32:09.615Z,28.92
2023-06-19T16:34:56.306Z,28.87
2023-06-19T16:37:43.214Z,28.74
2023-06-19T16:40:28.643Z,28.66
2023-06-19T16:43:14.936Z,28.60
2023-06-19T16:46:01.036Z,28.57
2023-06-19T16:48:47.010Z,28.55
2023-06-19T16:51:32.350Z,28.51
2023-06-19T16:54:17.872Z,28.43
2023-06-19T16:57:03.524Z,28.37
2023-06-19T16:59:49.378Z,28.36
2023-06-19T17:02:35.060Z,28.26
2023-06-19T17:05:22.250Z,28.00
2023-06-19T17:08:07.929Z,27.91
2023-06-19T17:10:53.612Z,27.75
2023-06-19T17:13:39.155Z,27.61
2023-06-19T17:16:24.765Z,27.47
2023-06-19T17:19:10.394Z,27.36
2023-06-19T17:21:56.212Z,27.28
2023-06-19T17:24:41.985Z,27.25
2023-06-19T17:27:27.896Z,27.19
2023-06-19T17:30:13.946Z,27.04
2023-06-19T17:32:59.463Z,26.97
2023-06-19T17:35:45.145Z,26.95
2023-06-19T17:38:30.744Z,26.88
2023-06-19T17:41:16.203Z,26.75
2023-06-19T17:44:05.183Z,26.64
2023-06-19T17:46:50.615Z,26.54
2023-06-19T17:49:35.965Z,26.49
2023-06-19T17:52:21.527Z,26.48
2023-06-19T17:55:08.786Z,26.47
2023-06-19T17:57:54.455Z,26.40
2023-06-19T18:00:39.959Z,26.34
2023-06-19T18:03:25.458Z,26.24
2023-06-19T18:06:11.607Z,26.13
2023-06-19T18:08:57.391Z,26.01
2023-06-19T18:11:43.297Z,25.85
2023-06-19T18:14:29.292Z,25.74
2023-06-19T18:17:15.019Z,25.65
2023-06-19T18:20:00.608Z,25.54
2023-06-19T18:22:46.527Z,25.41
2023-06-19T18:25:31.891Z,25.24
2023-06-19T18:28:17.540Z,25.08
2023-06-19T18:31:02.965Z,24.92
2023-06-19T18:33:49.044Z,24.73
2023-06-19T18:36:34.259Z,24.50
2023-06-19T18:39:19.968Z,24.24
2023-06-19T18:42:06.159Z,23.92
2023-06-19T18:44:52.014Z,23.56
2023-06-19T18:47:37.537Z,23.30
2023-06-19T18:50:23.306Z,23.10
2023-06-19T18:53:09.238Z,22.95
2023-06-19T18:55:55.732Z,22.86
2023-06-19T18:58:41.736Z,22.81
2023-06-19T19:01:27.661Z,22.53
2023-06-19T19:04:12.850Z,22.29
2023-06-19T19:06:58.381Z,22.16
2023-06-19T19:09:43.673Z,22.08
2023-06-19T19:12:29.027Z,22.00
2023-06-19T19:15:14.696Z,21.93
2023-06-19T19:18:00.158Z,21.89
2023-06-19T19:20:47.072Z,21.80
2023-06-19T19:23:32.485Z,21.51
2023-06-19T19:26:17.966Z,21.24
2023-06-19T19:29:03.752Z,21.06
2023-06-19T19:31:49.006Z,20.89
2023-06-19T19:34:35.286Z,20.80
2023-06-19T19:37:20.920Z,20.74
2023-06-19T19:40:06.884Z,20.71
2023-06-19T19:42:52.489Z,20.63
2023-06-19T19:45:37.977Z,20.50
2023-06-19T19:48:23.422Z,20.43
2023-06-19T19:51:08.823Z,20.36
2023-06-19T19:53:54.224Z,20.23
2023-06-19T19:56:39.648Z,20.04
2023-06-19T19:59:24.830Z,19.92
2023-06-19T20:02:11.598Z,19.82
2023-06-19T20:04:57.016Z,19.64
2023-06-19T20:07:42.697Z,19.53
2023-06-19T20:10:28.871Z,19.47
2023-06-19T20:13:14.829Z,19.46
2023-06-19T20:16:00.741Z,19.44
2023-06-19T20:18:46.915Z,19.41
2023-06-19T20:21:32.188Z,19.36
2023-06-19T20:24:17.652Z,19.28
2023-06-19T20:27:03.585Z,19.18
2023-06-19T20:29:48.992Z,19.08
2023-06-19T20:32:34.568Z,19.00
2023-06-19T20:35:23.737Z,18.85
2023-06-19T20:38:09.359Z,18.75
2023-06-19T20:40:55.939Z,18.69
2023-06-19T20:43:45.660Z,18.57
2023-06-19T20:46:31.167Z,18.48
2023-06-19T20:49:17.042Z,18.44
2023-06-19T20:52:02.413Z,18.41
2023-06-19T20:54:48.408Z,18.39
2023-06-19T20:57:34.118Z,18.39
2023-06-19T21:00:20.601Z,18.37
2023-06-19T21:03:10.081Z,18.32
2023-06-19T21:06:00.690Z,18.22
2023-06-19T21:08:46.052Z,18.07
2023-06-19T21:11:32.401Z,17.95
2023-06-19T21:14:17.999Z,17.83
2023-06-19T21:17:04.214Z,17.75
2023-06-19T21:19:49.938Z,17.70
2023-06-19T21:22:37.879Z,17.65
2023-06-19T21:25:23.467Z,17.58
2023-06-19T21:28:09.016Z,17.49
2023-06-19T21:30:54.417Z,17.42
2023-06-19T21:33:41.610Z,17.37
2023-06-19T21:36:27.306Z,17.29
2023-06-19T21:39:12.715Z,17.21
2023-06-19T21:41:58.102Z,17.15
2023-06-19T21:44:44.687Z,17.13
2023-06-19T21:47:30.505Z,17.13
2023-06-19T21:50:15.826Z,17.06
2023-06-19T21:53:01.326Z,16.97
2023-06-19T21:55:47.023Z,16.87
2023-06-19T21:58:32.857Z,16.79
2023-06-19T22:01:18.248Z,16.77
2023-06-19T22:04:05.798Z,16.75
2023-06-19T22:06:52.703Z,16.79
2023-06-19T22:09:38.837Z,16.80
2023-06-19T22:12:24.376Z,16.79
2023-06-19T22:15:10.232Z,16.72
2023-06-19T22:17:55.925Z,16.66
2023-06-19T22:21:11.956Z,16.60
2023-06-19T22:23:57.725Z,16.59
2023-06-19T22:26:43.481Z,16.61
2023-06-19T22:29:29.151Z,16.60
2023-06-19T22:32:15.096Z,16.59
2023-06-19T22:35:00.527Z,16.60
2023-06-19T22:37:46.359Z,16.60
2023-06-19T22:40:31.894Z,16.60
2023-06-19T22:43:17.200Z,16.62
2023-06-19T22:46:02.537Z,16.63
2023-06-19T22:48:51.857Z,16.65
2023-06-19T22:51:37.191Z,16.66
2023-06-19T22:54:22.793Z,16.68
2023-06-19T22:57:08.225Z,16.71
2023-06-19T22:59:53.617Z,16.68
2023-06-19T23:02:40.104Z,16.69
2023-06-19T23:05:26.154Z,16.72
2023-06-19T23:08:12.024Z,16.72
2023-06-19T23:10:57.455Z,16.66
2023-06-19T23:13:42.722Z,16.55
2023-06-19T23:16:28.306Z,16.46
2023-06-19T23:19:13.624Z,16.40
2023-06-19T23:21:59.091Z,16.36
2023-06-19T23:24:44.737Z,16.34
2023-06-19T23:27:30.431Z,16.31
2023-06-19T23:30:15.951Z,16.30
2023-06-19T23:33:01.399Z,16.26
2023-06-19T23:35:47.016Z,16.20
2023-06-19T23:38:35.551Z,16.15
2023-06-19T23:41:21.857Z,16.20
2023-06-19T23:44:07.746Z,16.22
2023-06-19T23:46:53.330Z,16.16
2023-06-19T23:49:42.832Z,16.09
2023-06-19T23:52:38.759Z,16.01
2023-06-19T23:55:29.585Z,15.92
2023-06-19T23:58:14.934Z,15.87
